sensor_id;sensor_type;location;lat;lon;timestamp;P1;durP1;ratioP1;P2;durP2;ratioP2
27758;SDS011;15148;48.972;12.794;2023-09-12T00:04:16;11.48;;;10.38;;
27758;SDS011;15148;48.972;12.794;2023-09-12T00:09:18;11.20;;;10.02;;
27758;SDS011;15148;48.972;12.794;2023-09-12T00:14:20;11.52;;;10.35;;
27758;SDS011;15148;48.972;12.794;2023-09-12T00:19:22;11.13;;;10.02;;
27758;SDS011;15148;48.972;12.794;2023-09-12T00:24:24;11.00;;;10.00;;
27758;SDS011;15148;48.972;12.794;2023-09-12T00:29:26;12.02;;;10.65;;
27758;SDS011;15148;48.972;12.794;2023-09-12T00:34:27;11.50;;;10.40;;
27758;SDS011;15148;48.972;12.794;2023-09-12T00:39:29;11.80;;;10.60;;
27758;SDS011;15148;48.972;12.794;2023-09-12T00:44:31;14.68;;;10.13;;
27758;SDS011;15148;48.972;12.794;2023-09-12T00:49:33;11.18;;;10.07;;
27758;SDS011;15148;48.972;12.794;2023-09-12T00:54:36;12.75;;;11.57;;
27758;SDS011;15148;48.972;12.794;2023-09-12T00:59:37;11.88;;;10.77;;
27758;SDS011;15148;48.972;12.794;2023-09-12T01:04:39;11.75;;;10.70;;
27758;SDS011;15148;48.972;12.794;2023-09-12T01:09:42;12.38;;;11.10;;
27758;SDS011;15148;48.972;12.794;2023-09-12T01:14:44;11.85;;;10.77;;
27758;SDS011;15148;48.972;12.794;2023-09-12T01:19:46;11.55;;;10.45;;
27758;SDS011;15148;48.972;12.794;2023-09-12T01:30:16;11.30;;;10.20;;
27758;SDS011;15148;48.972;12.794;2023-09-12T01:35:21;11.70;;;10.65;;
27758;SDS011;15148;48.972;12.794;2023-09-12T01:40:40;11.27;;;10.27;;
27758;SDS011;15148;48.972;12.794;2023-09-12T01:45:54;11.23;;;9.98;;
27758;SDS011;15148;48.972;12.794;2023-09-12T01:50:58;10.52;;;9.57;;
27758;SDS011;15148;48.972;12.794;2023-09-12T01:56:02;11.88;;;10.77;;
27758;SDS011;15148;48.972;12.794;2023-09-12T02:01:04;12.02;;;10.82;;
27758;SDS011;15148;48.972;12.794;2023-09-12T02:06:05;12.02;;;10.32;;
27758;SDS011;15148;48.972;12.794;2023-09-12T02:11:07;10.73;;;9.63;;
27758;SDS011;15148;48.972;12.794;2023-09-12T02:16:09;13.57;;;11.57;;
27758;SDS011;15148;48.972;12.794;2023-09-12T02:21:11;11.73;;;10.63;;
27758;SDS011;15148;48.972;12.794;2023-09-12T02:26:13;14.02;;;10.27;;
27758;SDS011;15148;48.972;12.794;2023-09-12T02:31:15;12.68;;;11.20;;
27758;SDS011;15148;48.972;12.794;2023-09-12T02:36:17;13.68;;;10.80;;
27758;SDS011;15148;48.972;12.794;2023-09-12T02:41:19;11.25;;;10.18;;
27758;SDS011;15148;48.972;12.794;2023-09-12T02:46:21;11.07;;;9.98;;
27758;SDS011;15148;48.972;12.794;2023-09-12T02:51:23;12.15;;;11.05;;
27758;SDS011;15148;48.972;12.794;2023-09-12T02:56:26;11.38;;;10.27;;
27758;SDS011;15148;48.972;12.794;2023-09-12T03:01:28;12.50;;;11.27;;
27758;SDS011;15148;48.972;12.794;2023-09-12T03:06:30;12.32;;;11.10;;
27758;SDS011;15148;48.972;12.794;2023-09-12T03:11:33;11.75;;;10.73;;
27758;SDS011;15148;48.972;12.794;2023-09-12T03:16:35;12.05;;;10.85;;
27758;SDS011;15148;48.972;12.794;2023-09-12T03:21:38;13.00;;;11.57;;
27758;SDS011;15148;48.972;12.794;2023-09-12T03:26:40;12.52;;;11.13;;
27758;SDS011;15148;48.972;12.794;2023-09-12T03:31:42;11.80;;;10.70;;
27758;SDS011;15148;48.972;12.794;2023-09-12T03:36:44;12.00;;;10.80;;
27758;SDS011;15148;48.972;12.794;2023-09-12T03:41:47;12.90;;;11.63;;
27758;SDS011;15148;48.972;12.794;2023-09-12T03:46:49;12.88;;;11.70;;
27758;SDS011;15148;48.972;12.794;2023-09-12T03:51:51;11.88;;;10.88;;
27758;SDS011;15148;48.972;12.794;2023-09-12T03:56:53;11.68;;;10.63;;
27758;SDS011;15148;48.972;12.794;2023-09-12T04:01:55;12.73;;;11.43;;
27758;SDS011;15148;48.972;12.794;2023-09-12T04:06:57;13.13;;;11.25;;
27758;SDS011;15148;48.972;12.794;2023-09-12T04:11:59;14.30;;;10.18;;
27758;SDS011;15148;48.972;12.794;2023-09-12T04:17:02;12.25;;;10.98;;
27758;SDS011;15148;48.972;12.794;2023-09-12T04:22:08;13.23;;;12.02;;
27758;SDS011;15148;48.972;12.794;2023-09-12T04:27:10;13.73;;;12.38;;
27758;SDS011;15148;48.972;12.794;2023-09-12T04:32:12;13.00;;;11.73;;
27758;SDS011;15148;48.972;12.794;2023-09-12T04:37:14;12.40;;;11.18;;
27758;SDS011;15148;48.972;12.794;2023-09-12T04:42:16;11.80;;;10.80;;
27758;SDS011;15148;48.972;12.794;2023-09-12T04:47:18;12.77;;;11.48;;
27758;SDS011;15148;48.972;12.794;2023-09-12T04:52:20;13.20;;;11.98;;
27758;SDS011;15148;48.972;12.794;2023-09-12T04:57:22;14.10;;;11.85;;
27758;SDS011;15148;48.972;12.794;2023-09-12T05:02:24;17.90;;;12.45;;
27758;SDS011;15148;48.972;12.794;2023-09-12T05:07:27;11.90;;;10.82;;
27758;SDS011;15148;48.972;12.794;2023-09-12T05:12:29;12.68;;;11.50;;
27758;SDS011;15148;48.972;12.794;2023-09-12T05:17:31;13.73;;;12.32;;
27758;SDS011;15148;48.972;12.794;2023-09-12T05:22:33;13.35;;;12.05;;
27758;SDS011;15148;48.972;12.794;2023-09-12T05:27:35;14.85;;;13.55;;
27758;SDS011;15148;48.972;12.794;2023-09-12T05:32:37;12.80;;;11.55;;
27758;SDS011;15148;48.972;12.794;2023-09-12T05:37:39;13.95;;;12.48;;
27758;SDS011;15148;48.972;12.794;2023-09-12T05:42:41;14.05;;;12.73;;
27758;SDS011;15148;48.972;12.794;2023-09-12T05:47:43;14.10;;;12.70;;
27758;SDS011;15148;48.972;12.794;2023-09-12T05:52:45;13.70;;;12.50;;
27758;SDS011;15148;48.972;12.794;2023-09-12T05:57:48;14.55;;;13.25;;
27758;SDS011;15148;48.972;12.794;2023-09-12T06:02:54;14.30;;;12.90;;
27758;SDS011;15148;48.972;12.794;2023-09-12T06:07:56;13.38;;;11.98;;
27758;SDS011;15148;48.972;12.794;2023-09-12T06:12:58;13.43;;;12.10;;
27758;SDS011;15148;48.972;12.794;2023-09-12T06:18:00;13.40;;;12.23;;
27758;SDS011;15148;48.972;12.794;2023-09-12T06:23:02;13.93;;;12.70;;
27758;SDS011;15148;48.972;12.794;2023-09-12T06:28:05;12.52;;;11.50;;
27758;SDS011;15148;48.972;12.794;2023-09-12T06:33:09;25.45;;;15.95;;
27758;SDS011;15148;48.972;12.794;2023-09-12T06:38:11;17.60;;;13.13;;
27758;SDS011;15148;48.972;12.794;2023-09-12T06:43:13;24.20;;;15.07;;
27758;SDS011;15148;48.972;12.794;2023-09-12T06:48:16;28.05;;;14.45;;
27758;SDS011;15148;48.972;12.794;2023-09-12T06:53:18;15.95;;;13.00;;
27758;SDS011;15148;48.972;12.794;2023-09-12T06:58:19;14.65;;;12.90;;
27758;SDS011;15148;48.972;12.794;2023-09-12T07:03:21;15.75;;;14.20;;
27758;SDS011;15148;48.972;12.794;2023-09-12T07:08:23;15.45;;;13.95;;
27758;SDS011;15148;48.972;12.794;2023-09-12T07:13:25;13.60;;;12.50;;
27758;SDS011;15148;48.972;12.794;2023-09-12T07:18:27;14.10;;;12.73;;
27758;SDS011;15148;48.972;12.794;2023-09-12T07:23:29;16.17;;;14.70;;
27758;SDS011;15148;48.972;12.794;2023-09-12T07:28:31;14.00;;;12.80;;
27758;SDS011;15148;48.972;12.794;2023-09-12T07:33:33;13.00;;;11.90;;
27758;SDS011;15148;48.972;12.794;2023-09-12T07:38:35;13.40;;;12.20;;
27758;SDS011;15148;48.972;12.794;2023-09-12T07:43:38;12.15;;;11.13;;
27758;SDS011;15148;48.972;12.794;2023-09-12T07:48:42;11.93;;;10.80;;
27758;SDS011;15148;48.972;12.794;2023-09-12T07:53:44;12.20;;;11.02;;
27758;SDS011;15148;48.972;12.794;2023-09-12T07:58:46;12.48;;;11.38;;
27758;SDS011;15148;48.972;12.794;2023-09-12T08:03:50;11.93;;;10.85;;
27758;SDS011;15148;48.972;12.794;2023-09-12T08:08:52;12.00;;;10.80;;
27758;SDS011;15148;48.972;12.794;2023-09-12T08:13:54;12.02;;;11.02;;
27758;SDS011;15148;48.972;12.794;2023-09-12T08:18:58;12.30;;;11.18;;
27758;SDS011;15148;48.972;12.794;2023-09-12T08:24:00;12.00;;;11.00;;
27758;SDS011;15148;48.972;12.794;2023-09-12T08:29:02;12.80;;;11.02;;
27758;SDS011;15148;48.972;12.794;2023-09-12T08:34:04;12.32;;;11.23;;
27758;SDS011;15148;48.972;12.794;2023-09-12T08:39:06;12.07;;;11.07;;
27758;SDS011;15148;48.972;12.794;2023-09-12T08:44:10;12.30;;;11.05;;
27758;SDS011;15148;48.972;12.794;2023-09-12T08:49:12;12.20;;;11.00;;
27758;SDS011;15148;48.972;12.794;2023-09-12T08:54:14;12.07;;;11.05;;
27758;SDS011;15148;48.972;12.794;2023-09-12T08:59:15;12.30;;;11.20;;
27758;SDS011;15148;48.972;12.794;2023-09-12T09:04:18;13.18;;;12.07;;
27758;SDS011;15148;48.972;12.794;2023-09-12T09:09:21;12.45;;;11.25;;
27758;SDS011;15148;48.972;12.794;2023-09-12T09:14:23;11.90;;;10.90;;
27758;SDS011;15148;48.972;12.794;2023-09-12T09:19:39;11.73;;;10.60;;
27758;SDS011;15148;48.972;12.794;2023-09-12T09:24:45;12.55;;;11.45;;
27758;SDS011;15148;48.972;12.794;2023-09-12T09:29:47;12.10;;;11.00;;
27758;SDS011;15148;48.972;12.794;2023-09-12T09:34:49;11.80;;;10.70;;
27758;SDS011;15148;48.972;12.794;2023-09-12T09:39:54;11.43;;;10.32;;
27758;SDS011;15148;48.972;12.794;2023-09-12T09:44:57;10.85;;;9.85;;
27758;SDS011;15148;48.972;12.794;2023-09-12T09:49:59;9.88;;;8.88;;
27758;SDS011;15148;48.972;12.794;2023-09-12T09:55:00;10.57;;;9.68;;
27758;SDS011;15148;48.972;12.794;2023-09-12T10:00:02;10.27;;;9.38;;
27758;SDS011;15148;48.972;12.794;2023-09-12T10:05:09;9.95;;;9.05;;
27758;SDS011;15148;48.972;12.794;2023-09-12T10:10:12;10.82;;;9.90;;
27758;SDS011;15148;48.972;12.794;2023-09-12T10:15:15;10.15;;;9.32;;
27758;SDS011;15148;48.972;12.794;2023-09-12T10:20:21;10.05;;;9.15;;
27758;SDS011;15148;48.972;12.794;2023-09-12T10:25:28;9.95;;;8.85;;
27758;SDS011;15148;48.972;12.794;2023-09-12T10:30:30;9.95;;;9.05;;
27758;SDS011;15148;48.972;12.794;2023-09-12T10:35:33;9.15;;;8.25;;
27758;SDS011;15148;48.972;12.794;2023-09-12T10:40:36;9.55;;;8.65;;
27758;SDS011;15148;48.972;12.794;2023-09-12T10:45:44;10.13;;;9.23;;
27758;SDS011;15148;48.972;12.794;2023-09-12T10:50:47;10.13;;;9.23;;
27758;SDS011;15148;48.972;12.794;2023-09-12T10:56:00;11.35;;;10.25;;
27758;SDS011;15148;48.972;12.794;2023-09-12T11:01:21;9.98;;;9.10;;
27758;SDS011;15148;48.972;12.794;2023-09-12T11:06:28;10.30;;;9.40;;
27758;SDS011;15148;48.972;12.794;2023-09-12T11:11:31;10.10;;;9.20;;
27758;SDS011;15148;48.972;12.794;2023-09-12T11:16:32;10.88;;;9.88;;
27758;SDS011;15148;48.972;12.794;2023-09-12T11:21:36;10.20;;;9.30;;
27758;SDS011;15148;48.972;12.794;2023-09-12T11:26:54;10.40;;;9.60;;
27758;SDS011;15148;48.972;12.794;2023-09-12T11:31:57;10.13;;;9.13;;
27758;SDS011;15148;48.972;12.794;2023-09-12T11:37:00;9.88;;;9.07;;
27758;SDS011;15148;48.972;12.794;2023-09-12T11:42:04;10.40;;;9.40;;
27758;SDS011;15148;48.972;12.794;2023-09-12T11:47:10;10.55;;;9.68;;
27758;SDS011;15148;48.972;12.794;2023-09-12T11:52:14;12.55;;;10.25;;
27758;SDS011;15148;48.972;12.794;2023-09-12T11:57:20;10.57;;;9.73;;
27758;SDS011;15148;48.972;12.794;2023-09-12T12:02:23;10.32;;;9.43;;
27758;SDS011;15148;48.972;12.794;2023-09-12T12:07:26;12.18;;;10.95;;
27758;SDS011;15148;48.972;12.794;2023-09-12T12:12:28;11.77;;;10.65;;
27758;SDS011;15148;48.972;12.794;2023-09-12T12:17:30;11.25;;;10.20;;
27758;SDS011;15148;48.972;12.794;2023-09-12T12:22:32;11.85;;;10.13;;
27758;SDS011;15148;48.972;12.794;2023-09-12T12:27:39;11.23;;;10.23;;
27758;SDS011;15148;48.972;12.794;2023-09-12T12:32:42;11.32;;;10.32;;
27758;SDS011;15148;48.972;12.794;2023-09-12T12:37:48;12.13;;;9.68;;
27758;SDS011;15148;48.972;12.794;2023-09-12T12:42:57;10.65;;;9.70;;
27758;SDS011;15148;48.972;12.794;2023-09-12T12:48:00;12.57;;;10.07;;
27758;SDS011;15148;48.972;12.794;2023-09-12T12:53:02;12.13;;;10.38;;
27758;SDS011;15148;48.972;12.794;2023-09-12T12:58:04;11.10;;;10.05;;
27758;SDS011;15148;48.972;12.794;2023-09-12T13:03:06;11.48;;;10.48;;
27758;SDS011;15148;48.972;12.794;2023-09-12T13:08:08;11.30;;;10.40;;
27758;SDS011;15148;48.972;12.794;2023-09-12T13:13:10;10.98;;;10.05;;
27758;SDS011;15148;48.972;12.794;2023-09-12T13:18:12;10.43;;;9.45;;
27758;SDS011;15148;48.972;12.794;2023-09-12T13:23:14;11.27;;;10.27;;
27758;SDS011;15148;48.972;12.794;2023-09-12T13:28:17;10.75;;;9.85;;
27758;SDS011;15148;48.972;12.794;2023-09-12T13:33:19;11.02;;;10.13;;
27758;SDS011;15148;48.972;12.794;2023-09-12T13:38:21;11.52;;;10.35;;
27758;SDS011;15148;48.972;12.794;2023-09-12T13:43:24;10.93;;;9.88;;
27758;SDS011;15148;48.972;12.794;2023-09-12T13:48:26;12.30;;;10.50;;
27758;SDS011;15148;48.972;12.794;2023-09-12T13:53:28;10.65;;;9.68;;
27758;SDS011;15148;48.972;12.794;2023-09-12T13:58:30;11.80;;;10.80;;
27758;SDS011;15148;48.972;12.794;2023-09-12T14:03:46;11.23;;;10.23;;
27758;SDS011;15148;48.972;12.794;2023-09-12T14:08:49;11.55;;;10.45;;
27758;SDS011;15148;48.972;12.794;2023-09-12T14:13:53;10.63;;;9.52;;
27758;SDS011;15148;48.972;12.794;2023-09-12T14:19:14;11.23;;;10.23;;
27758;SDS011;15148;48.972;12.794;2023-09-12T14:24:17;11.40;;;10.30;;
27758;SDS011;15148;48.972;12.794;2023-09-12T14:29:21;11.98;;;10.90;;
27758;SDS011;15148;48.972;12.794;2023-09-12T14:34:25;12.13;;;10.93;;
27758;SDS011;15148;48.972;12.794;2023-09-12T14:39:33;12.20;;;11.05;;
27758;SDS011;15148;48.972;12.794;2023-09-12T14:44:35;11.98;;;10.95;;
27758;SDS011;15148;48.972;12.794;2023-09-12T14:49:37;12.00;;;10.95;;
27758;SDS011;15148;48.972;12.794;2023-09-12T14:54:53;12.70;;;10.63;;
27758;SDS011;15148;48.972;12.794;2023-09-12T14:59:55;12.25;;;11.25;;
27758;SDS011;15148;48.972;12.794;2023-09-12T15:04:59;12.50;;;11.30;;
27758;SDS011;15148;48.972;12.794;2023-09-12T15:10:02;12.25;;;11.15;;
27758;SDS011;15148;48.972;12.794;2023-09-12T15:15:05;11.65;;;10.52;;
27758;SDS011;15148;48.972;12.794;2023-09-12T15:20:07;11.73;;;10.65;;
27758;SDS011;15148;48.972;12.794;2023-09-12T15:25:10;11.55;;;10.45;;
27758;SDS011;15148;48.972;12.794;2023-09-12T15:30:12;12.40;;;11.07;;
27758;SDS011;15148;48.972;12.794;2023-09-12T15:35:15;12.50;;;11.18;;
27758;SDS011;15148;48.972;12.794;2023-09-12T15:40:17;11.68;;;10.60;;
27758;SDS011;15148;48.972;12.794;2023-09-12T15:45:18;11.35;;;10.43;;
27758;SDS011;15148;48.972;12.794;2023-09-12T15:50:22;13.23;;;11.43;;
27758;SDS011;15148;48.972;12.794;2023-09-12T15:55:24;12.88;;;11.77;;
27758;SDS011;15148;48.972;12.794;2023-09-12T16:00:26;13.20;;;11.93;;
27758;SDS011;15148;48.972;12.794;2023-09-12T16:05:28;12.85;;;11.60;;
27758;SDS011;15148;48.972;12.794;2023-09-12T16:10:30;12.02;;;10.82;;
27758;SDS011;15148;48.972;12.794;2023-09-12T16:15:34;12.23;;;11.02;;
27758;SDS011;15148;48.972;12.794;2023-09-12T16:20:36;13.32;;;12.02;;
27758;SDS011;15148;48.972;12.794;2023-09-12T16:25:38;13.60;;;12.30;;
27758;SDS011;15148;48.972;12.794;2023-09-12T16:30:40;15.20;;;12.27;;
27758;SDS011;15148;48.972;12.794;2023-09-12T16:35:45;13.25;;;11.77;;
27758;SDS011;15148;48.972;12.794;2023-09-12T16:40:48;14.05;;;12.50;;
27758;SDS011;15148;48.972;12.794;2023-09-12T16:45:49;14.00;;;12.70;;
27758;SDS011;15148;48.972;12.794;2023-09-12T16:50:51;13.18;;;11.88;;
27758;SDS011;15148;48.972;12.794;2023-09-12T16:55:53;13.70;;;12.40;;
27758;SDS011;15148;48.972;12.794;2023-09-12T17:00:57;14.45;;;12.75;;
27758;SDS011;15148;48.972;12.794;2023-09-12T17:06:00;13.57;;;12.27;;
27758;SDS011;15148;48.972;12.794;2023-09-12T17:11:03;13.77;;;12.38;;
27758;SDS011;15148;48.972;12.794;2023-09-12T17:16:04;13.07;;;11.88;;
27758;SDS011;15148;48.972;12.794;2023-09-12T17:21:08;13.55;;;12.25;;
27758;SDS011;15148;48.972;12.794;2023-09-12T17:26:10;13.35;;;12.07;;
27758;SDS011;15148;48.972;12.794;2023-09-12T17:31:13;13.10;;;11.93;;
27758;SDS011;15148;48.972;12.794;2023-09-12T17:36:16;13.40;;;12.10;;
27758;SDS011;15148;48.972;12.794;2023-09-12T17:41:18;13.55;;;12.35;;
27758;SDS011;15148;48.972;12.794;2023-09-12T17:46:21;13.95;;;12.52;;
27758;SDS011;15148;48.972;12.794;2023-09-12T17:51:23;14.77;;;12.68;;
27758;SDS011;15148;48.972;12.794;2023-09-12T17:56:24;13.40;;;12.00;;
27758;SDS011;15148;48.972;12.794;2023-09-12T18:01:26;13.43;;;12.23;;
27758;SDS011;15148;48.972;12.794;2023-09-12T18:06:29;13.57;;;12.38;;
27758;SDS011;15148;48.972;12.794;2023-09-12T18:11:32;18.38;;;12.27;;
27758;SDS011;15148;48.972;12.794;2023-09-12T18:16:34;12.23;;;11.13;;
27758;SDS011;15148;48.972;12.794;2023-09-12T18:21:37;15.52;;;12.05;;
27758;SDS011;15148;48.972;12.794;2023-09-12T18:26:39;13.88;;;12.48;;
27758;SDS011;15148;48.972;12.794;2023-09-12T18:31:41;13.73;;;12.00;;
27758;SDS011;15148;48.972;12.794;2023-09-12T18:36:43;13.98;;;12.57;;
27758;SDS011;15148;48.972;12.794;2023-09-12T18:41:45;13.15;;;11.88;;
27758;SDS011;15148;48.972;12.794;2023-09-12T18:46:48;13.35;;;12.00;;
27758;SDS011;15148;48.972;12.794;2023-09-12T18:51:50;12.73;;;11.57;;
27758;SDS011;15148;48.972;12.794;2023-09-12T18:56:52;13.68;;;12.27;;
27758;SDS011;15148;48.972;12.794;2023-09-12T19:01:53;13.68;;;12.32;;
27758;SDS011;15148;48.972;12.794;2023-09-12T19:06:55;20.90;;;18.35;;
27758;SDS011;15148;48.972;12.794;2023-09-12T19:11:57;12.82;;;11.50;;
27758;SDS011;15148;48.972;12.794;2023-09-12T19:16:59;13.77;;;12.18;;
27758;SDS011;15148;48.972;12.794;2023-09-12T19:22:01;14.35;;;12.98;;
27758;SDS011;15148;48.972;12.794;2023-09-12T19:27:03;13.90;;;12.70;;
27758;SDS011;15148;48.972;12.794;2023-09-12T19:32:05;15.85;;;12.93;;
27758;SDS011;15148;48.972;12.794;2023-09-12T19:37:07;14.40;;;12.73;;
27758;SDS011;15148;48.972;12.794;2023-09-12T19:42:09;15.98;;;12.85;;
27758;SDS011;15148;48.972;12.794;2023-09-12T19:47:11;13.00;;;11.80;;
27758;SDS011;15148;48.972;12.794;2023-09-12T19:52:13;15.68;;;13.05;;
27758;SDS011;15148;48.972;12.794;2023-09-12T19:57:15;13.93;;;11.77;;
27758;SDS011;15148;48.972;12.794;2023-09-12T20:02:17;14.75;;;12.80;;
27758;SDS011;15148;48.972;12.794;2023-09-12T20:07:19;13.80;;;12.40;;
27758;SDS011;15148;48.972;12.794;2023-09-12T20:12:21;13.68;;;12.43;;
27758;SDS011;15148;48.972;12.794;2023-09-12T20:17:23;15.25;;;13.75;;
27758;SDS011;15148;48.972;12.794;2023-09-12T20:22:26;14.65;;;13.30;;
27758;SDS011;15148;48.972;12.794;2023-09-12T20:27:28;14.15;;;12.82;;
27758;SDS011;15148;48.972;12.794;2023-09-12T20:32:30;13.90;;;12.70;;
27758;SDS011;15148;48.972;12.794;2023-09-12T20:37:48;15.63;;;12.48;;
27758;SDS011;15148;48.972;12.794;2023-09-12T20:42:49;14.48;;;13.05;;
27758;SDS011;15148;48.972;12.794;2023-09-12T20:47:52;13.82;;;12.63;;
27758;SDS011;15148;48.972;12.794;2023-09-12T20:53:00;13.80;;;12.60;;
27758;SDS011;15148;48.972;12.794;2023-09-12T20:58:07;13.43;;;12.23;;
27758;SDS011;15148;48.972;12.794;2023-09-12T21:03:09;14.75;;;13.35;;
27758;SDS011;15148;48.972;12.794;2023-09-12T21:08:13;14.90;;;12.68;;
27758;SDS011;15148;48.972;12.794;2023-09-12T21:13:15;14.27;;;12.93;;
27758;SDS011;15148;48.972;12.794;2023-09-12T21:18:18;14.73;;;12.52;;
27758;SDS011;15148;48.972;12.794;2023-09-12T21:23:20;14.05;;;12.55;;
27758;SDS011;15148;48.972;12.794;2023-09-12T21:28:21;14.13;;;12.73;;
27758;SDS011;15148;48.972;12.794;2023-09-12T21:33:23;13.55;;;12.32;;
27758;SDS011;15148;48.972;12.794;2023-09-12T21:38:25;13.43;;;12.13;;
27758;SDS011;15148;48.972;12.794;2023-09-12T21:43:28;13.77;;;12.38;;
27758;SDS011;15148;48.972;12.794;2023-09-12T21:48:30;13.93;;;12.52;;
27758;SDS011;15148;48.972;12.794;2023-09-12T21:53:33;13.23;;;11.95;;
27758;SDS011;15148;48.972;12.794;2023-09-12T21:58:35;12.95;;;11.65;;
27758;SDS011;15148;48.972;12.794;2023-09-12T22:03:37;13.52;;;11.95;;
27758;SDS011;15148;48.972;12.794;2023-09-12T22:08:39;14.77;;;12.25;;
27758;SDS011;15148;48.972;12.794;2023-09-12T22:13:40;13.32;;;12.13;;
27758;SDS011;15148;48.972;12.794;2023-09-12T22:18:43;12.75;;;11.55;;
27758;SDS011;15148;48.972;12.794;2023-09-12T22:23:45;13.43;;;11.35;;
27758;SDS011;15148;48.972;12.794;2023-09-12T22:28:47;13.77;;;12.40;;
27758;SDS011;15148;48.972;12.794;2023-09-12T22:33:48;13.52;;;11.98;;
27758;SDS011;15148;48.972;12.794;2023-09-12T22:38:50;12.63;;;11.18;;
27758;SDS011;15148;48.972;12.794;2023-09-12T22:43:52;12.95;;;11.52;;
27758;SDS011;15148;48.972;12.794;2023-09-12T22:48:54;13.35;;;11.82;;
27758;SDS011;15148;48.972;12.794;2023-09-12T22:53:56;13.25;;;11.95;;
27758;SDS011;15148;48.972;12.794;2023-09-12T22:58:58;12.95;;;11.75;;
27758;SDS011;15148;48.972;12.794;2023-09-12T23:04:00;13.05;;;11.85;;
27758;SDS011;15148;48.972;12.794;2023-09-12T23:09:02;13.75;;;12.20;;
27758;SDS011;15148;48.972;12.794;2023-09-12T23:14:05;14.75;;;13.23;;
27758;SDS011;15148;48.972;12.794;2023-09-12T23:19:07;12.80;;;11.60;;
27758;SDS011;15148;48.972;12.794;2023-09-12T23:24:09;13.27;;;11.90;;
27758;SDS011;15148;48.972;12.794;2023-09-12T23:29:10;13.20;;;11.90;;
27758;SDS011;15148;48.972;12.794;2023-09-12T23:34:12;12.63;;;11.32;;
27758;SDS011;15148;48.972;12.794;2023-09-12T23:39:14;13.10;;;11.80;;
27758;SDS011;15148;48.972;12.794;2023-09-12T23:44:16;13.52;;;12.23;;
27758;SDS011;15148;48.972;12.794;2023-09-12T23:49:18;12.75;;;11.55;;
27758;SDS011;15148;48.972;12.794;2023-09-12T23:54:19;12.85;;;11.65;;
27758;SDS011;15148;48.972;12.794;2023-09-12T23:59:21;14.15;;;12.27;;
